sensor_id;sensor_type;location;lat;lon;timestamp;pressure;altitude;pressure_sealevel;temperature;humidity
3132;BME280;62090;52.330;9.104;2023-04-15T00:01:17;100385.44;;;9.44;85.73
3132;BME280;62090;52.330;9.104;2023-04-15T00:03:52;100365.09;;;9.44;85.34
3132;BME280;62090;52.330;9.104;2023-04-15T00:06:23;100374.66;;;9.54;85.48
3132;BME280;62090;52.330;9.104;2023-04-15T00:08:53;100375.59;;;9.59;85.75
3132;BME280;62090;52.330;9.104;2023-04-15T00:11:23;100358.28;;;9.43;86.33
3132;BME280;62090;52.330;9.104;2023-04-15T00:13:53;100374.75;;;9.58;86.06
3132;BME280;62090;52.330;9.104;2023-04-15T00:16:22;100354.28;;;9.54;85.47
3132;BME280;62090;52.330;9.104;2023-04-15T00:18:55;100370.59;;;9.62;85.63
3132;BME280;62090;52.330;9.104;2023-04-15T00:21:25;100369.59;;;9.55;86.10
3132;BME280;62090;52.330;9.104;2023-04-15T00:23:55;100331.13;;;9.40;85.99
3132;BME280;62090;52.330;9.104;2023-04-15T00:26:25;100362.84;;;9.56;86.56
3132;BME280;62090;52.330;9.104;2023-04-15T00:28:55;100367.09;;;9.57;86.42
3132;BME280;62090;52.330;9.104;2023-04-15T00:31:25;100369.75;;;9.63;86.43
3132;BME280;62090;52.330;9.104;2023-04-15T00:33:58;100370.59;;;9.62;86.10
3132;BME280;62090;52.330;9.104;2023-04-15T00:36:28;100367.22;;;9.63;86.11
3132;BME280;62090;52.330;9.104;2023-04-15T00:38:59;100361.16;;;9.58;85.76
3132;BME280;62090;52.330;9.104;2023-04-15T00:41:29;100363.84;;;9.64;86.27
3132;BME280;62090;52.330;9.104;2023-04-15T00:44:01;100344.94;;;9.53;85.71
3132;BME280;62090;52.330;9.104;2023-04-15T00:46:32;100365.63;;;9.68;85.67
3132;BME280;62090;52.330;9.104;2023-04-15T00:49:07;100358.69;;;9.61;85.41
3132;BME280;62090;52.330;9.104;2023-04-15T00:51:37;100364.66;;;9.61;85.48
3132;BME280;62090;52.330;9.104;2023-04-15T00:54:07;100368.06;;;9.63;85.64
3132;BME280;62090;52.330;9.104;2023-04-15T00:56:38;100361.16;;;9.58;85.48
3132;BME280;62090;52.330;9.104;2023-04-15T00:59:08;100382.38;;;9.57;85.91
3132;BME280;62090;52.330;9.104;2023-04-15T01:01:37;100368.75;;;9.55;85.67
3132;BME280;62090;52.330;9.104;2023-04-15T01:04:10;100366.97;;;9.52;85.68
3132;BME280;62090;52.330;9.104;2023-04-15T01:06:41;100358.38;;;9.46;86.36
3132;BME280;62090;52.330;9.104;2023-04-15T01:09:10;100365.84;;;9.40;86.19
3132;BME280;62090;52.330;9.104;2023-04-15T01:11:40;100342.63;;;9.24;86.60
3132;BME280;62090;52.330;9.104;2023-04-15T01:14:10;100356.44;;;9.37;86.57
3132;BME280;62090;52.330;9.104;2023-04-15T01:16:40;100357.28;;;9.36;86.21
3132;BME280;62090;52.330;9.104;2023-04-15T01:19:15;100354.63;;;9.31;86.14
3132;BME280;62090;52.330;9.104;2023-04-15T01:21:45;100353.53;;;9.20;86.60
3132;BME280;62090;52.330;9.104;2023-04-15T01:24:17;100352.75;;;9.23;86.85
3132;BME280;62090;52.330;9.104;2023-04-15T01:26:50;100336.28;;;9.07;87.14
3132;BME280;62090;52.330;9.104;2023-04-15T01:29:20;100350.78;;;9.11;87.71
3132;BME280;62090;52.330;9.104;2023-04-15T01:31:50;100346.50;;;9.10;87.61
3132;BME280;62090;52.330;9.104;2023-04-15T01:34:39;100348.19;;;9.10;87.73
3132;BME280;62090;52.330;9.104;2023-04-15T01:37:27;100298.47;;;8.85;87.65
3132;BME280;62090;52.330;9.104;2023-04-15T01:39:57;100338.09;;;9.13;87.69
3132;BME280;62090;52.330;9.104;2023-04-15T01:42:30;100351.88;;;9.22;87.81
3132;BME280;62090;52.330;9.104;2023-04-15T01:45:01;100346.75;;;9.21;87.16
3132;BME280;62090;52.330;9.104;2023-04-15T01:47:32;100352.56;;;9.15;87.39
3132;BME280;62090;52.330;9.104;2023-04-15T01:50:04;100323.47;;;9.04;87.29
3132;BME280;62090;52.330;9.104;2023-04-15T01:52:36;100350.09;;;9.18;87.48
3132;BME280;62090;52.330;9.104;2023-04-15T01:55:08;100328.72;;;9.10;87.38
3132;BME280;62090;52.330;9.104;2023-04-15T01:57:42;100352.00;;;9.27;87.52
3132;BME280;62090;52.330;9.104;2023-04-15T02:00:14;100355.44;;;9.29;87.15
3132;BME280;62090;52.330;9.104;2023-04-15T02:02:45;100357.88;;;9.24;86.78
3132;BME280;62090;52.330;9.104;2023-04-15T02:05:16;100353.50;;;9.19;87.44
3132;BME280;62090;52.330;9.104;2023-04-15T02:07:47;100354.31;;;9.18;87.08
3132;BME280;62090;52.330;9.104;2023-04-15T02:10:18;100348.13;;;9.07;88.16
3132;BME280;62090;52.330;9.104;2023-04-15T02:12:53;100354.28;;;9.16;87.47
3132;BME280;62090;52.330;9.104;2023-04-15T02:15:27;100342.19;;;9.06;87.78
3132;BME280;62090;52.330;9.104;2023-04-15T02:17:58;100343.97;;;9.10;88.15
3132;BME280;62090;52.330;9.104;2023-04-15T02:20:29;100354.16;;;9.12;87.58
3132;BME280;62090;52.330;9.104;2023-04-15T02:23:01;100357.72;;;9.18;88.02
3132;BME280;62090;52.330;9.104;2023-04-15T02:25:34;100302.88;;;8.92;87.98
3132;BME280;62090;52.330;9.104;2023-04-15T02:28:08;100361.38;;;9.29;87.96
3132;BME280;62090;52.330;9.104;2023-04-15T02:30:39;100347.91;;;9.33;87.28
3132;BME280;62090;52.330;9.104;2023-04-15T02:33:10;100356.50;;;9.39;87.39
3132;BME280;62090;52.330;9.104;2023-04-15T02:35:41;100351.41;;;9.39;86.88
3132;BME280;62090;52.330;9.104;2023-04-15T02:38:13;100354.88;;;9.42;86.95
3132;BME280;62090;52.330;9.104;2023-04-15T02:40:45;100357.47;;;9.44;86.95
3132;BME280;62090;52.330;9.104;2023-04-15T02:43:19;100354.16;;;9.46;86.82
3132;BME280;62090;52.330;9.104;2023-04-15T02:45:53;100355.78;;;9.44;87.07
3132;BME280;62090;52.330;9.104;2023-04-15T02:48:24;100354.88;;;9.42;87.26
3132;BME280;62090;52.330;9.104;2023-04-15T02:51:10;100341.97;;;9.33;87.46
3132;BME280;62090;52.330;9.104;2023-04-15T02:53:41;100347.84;;;9.30;88.00
3132;BME280;62090;52.330;9.104;2023-04-15T02:56:12;100351.41;;;9.39;88.30
3132;BME280;62090;52.330;9.104;2023-04-15T02:58:47;100347.22;;;9.41;87.78
3132;BME280;62090;52.330;9.104;2023-04-15T03:01:19;100351.47;;;9.42;87.83
3132;BME280;62090;52.330;9.104;2023-04-15T03:03:50;100297.50;;;9.16;87.63
3132;BME280;62090;52.330;9.104;2023-04-15T03:06:21;100343.03;;;9.43;87.71
3132;BME280;62090;52.330;9.104;2023-04-15T03:08:52;100348.94;;;9.42;87.43
3132;BME280;62090;52.330;9.104;2023-04-15T03:11:24;100346.31;;;9.39;87.68
3132;BME280;62090;52.330;9.104;2023-04-15T03:13:57;100332.59;;;9.30;88.56
3132;BME280;62090;52.330;9.104;2023-04-15T03:16:33;100347.25;;;9.42;87.85
3132;BME280;62090;52.330;9.104;2023-04-15T03:19:04;100353.19;;;9.43;88.22
3132;BME280;62090;52.330;9.104;2023-04-15T03:21:35;100341.19;;;9.36;88.06
3132;BME280;62090;52.330;9.104;2023-04-15T03:24:06;100329.28;;;9.35;87.98
3132;BME280;62090;52.330;9.104;2023-04-15T03:26:37;100334.44;;;9.38;88.08
3132;BME280;62090;52.330;9.104;2023-04-15T03:29:17;100327.75;;;9.43;88.24
3132;BME280;62090;52.330;9.104;2023-04-15T03:31:48;100350.94;;;9.55;87.56
3132;BME280;62090;52.330;9.104;2023-04-15T03:34:19;100303.59;;;9.22;87.52
3132;BME280;62090;52.330;9.104;2023-04-15T03:36:50;100354.97;;;9.47;87.69
3132;BME280;62090;52.330;9.104;2023-04-15T03:39:21;100327.19;;;9.17;87.86
3132;BME280;62090;52.330;9.104;2023-04-15T03:41:52;100355.47;;;9.30;88.65
3132;BME280;62090;52.330;9.104;2023-04-15T03:44:27;100361.22;;;9.23;88.82
3132;BME280;62090;52.330;9.104;2023-04-15T03:46:59;100355.22;;;9.20;89.75
3132;BME280;62090;52.330;9.104;2023-04-15T03:49:30;100353.72;;;9.28;89.61
3132;BME280;62090;52.330;9.104;2023-04-15T03:52:01;100365.66;;;9.30;88.79
3132;BME280;62090;52.330;9.104;2023-04-15T03:54:32;100358.91;;;9.32;89.80
3132;BME280;62090;52.330;9.104;2023-04-15T03:57:03;100362.31;;;9.33;89.75
3132;BME280;62090;52.330;9.104;2023-04-15T03:59:37;100363.22;;;9.37;89.27
3132;BME280;62090;52.330;9.104;2023-04-15T04:02:08;100359.72;;;9.31;89.62
3132;BME280;62090;52.330;9.104;2023-04-15T04:04:39;100364.78;;;9.30;89.32
3132;BME280;62090;52.330;9.104;2023-04-15T04:07:14;100363.06;;;9.29;89.47
3132;BME280;62090;52.330;9.104;2023-04-15T04:09:45;100351.84;;;9.21;89.80
3132;BME280;62090;52.330;9.104;2023-04-15T04:12:16;100327.59;;;8.98;89.87
3132;BME280;62090;52.330;9.104;2023-04-15T04:14:50;100355.34;;;9.26;89.93
3132;BME280;62090;52.330;9.104;2023-04-15T04:17:21;100353.50;;;9.19;90.10
3132;BME280;62090;52.330;9.104;2023-04-15T04:19:52;100330.06;;;8.96;90.89
3132;BME280;62090;52.330;9.104;2023-04-15T04:22:23;100350.72;;;9.10;91.00
3132;BME280;62090;52.330;9.104;2023-04-15T04:24:54;100360.13;;;9.12;91.15
3132;BME280;62090;52.330;9.104;2023-04-15T04:27:26;100347.09;;;9.00;92.35
3132;BME280;62090;52.330;9.104;2023-04-15T04:30:00;100326.56;;;8.91;92.25
3132;BME280;62090;52.330;9.104;2023-04-15T04:32:31;100297.97;;;8.65;92.56
3132;BME280;62090;52.330;9.104;2023-04-15T04:35:02;100321.03;;;8.73;93.13
3132;BME280;62090;52.330;9.104;2023-04-15T04:37:34;100346.50;;;8.76;93.88
3132;BME280;62090;52.330;9.104;2023-04-15T04:40:06;100359.38;;;8.83;94.71
3132;BME280;62090;52.330;9.104;2023-04-15T04:42:37;100364.56;;;8.86;94.93
3132;BME280;62090;52.330;9.104;2023-04-15T04:45:11;100370.50;;;8.87;95.85
3132;BME280;62090;52.330;9.104;2023-04-15T04:47:42;100355.88;;;8.78;95.40
3132;BME280;62090;52.330;9.104;2023-04-15T04:50:13;100368.94;;;8.92;95.47
3132;BME280;62090;52.330;9.104;2023-04-15T04:52:44;100358.69;;;8.89;95.41
3132;BME280;62090;52.330;9.104;2023-04-15T04:55:15;100367.91;;;8.85;95.99
3132;BME280;62090;52.330;9.104;2023-04-15T04:57:46;100373.88;;;8.86;96.46
3132;BME280;62090;52.330;9.104;2023-04-15T05:00:20;100371.91;;;8.76;97.11
3132;BME280;62090;52.330;9.104;2023-04-15T05:02:51;100363.31;;;8.71;97.26
3132;BME280;62090;52.330;9.104;2023-04-15T05:05:22;100378.03;;;8.84;97.50
3132;BME280;62090;52.330;9.104;2023-04-15T05:07:54;100381.16;;;8.74;97.98
3132;BME280;62090;52.330;9.104;2023-04-15T05:10:25;100364.03;;;8.65;98.77
3132;BME280;62090;52.330;9.104;2023-04-15T05:12:56;100375.91;;;8.66;99.28
3132;BME280;62090;52.330;9.104;2023-04-15T05:15:29;100357.16;;;8.61;99.26
3132;BME280;62090;52.330;9.104;2023-04-15T05:18:02;100373.47;;;8.71;100.00
3132;BME280;62090;52.330;9.104;2023-04-15T05:20:33;100375.97;;;8.69;100.00
3132;BME280;62090;52.330;9.104;2023-04-15T05:23:04;100317.72;;;8.42;99.82
3132;BME280;62090;52.330;9.104;2023-04-15T05:25:35;100315.97;;;8.41;100.00
3132;BME280;62090;52.330;9.104;2023-04-15T05:28:06;100373.31;;;8.65;100.00
3132;BME280;62090;52.330;9.104;2023-04-15T05:30:39;100387.09;;;8.74;100.00
3132;BME280;62090;52.330;9.104;2023-04-15T05:33:11;100361.38;;;8.62;100.00
3132;BME280;62090;52.330;9.104;2023-04-15T05:35:42;100385.50;;;8.78;100.00
3132;BME280;62090;52.330;9.104;2023-04-15T05:38:13;100383.81;;;8.77;100.00
3132;BME280;62090;52.330;9.104;2023-04-15T05:40:44;100352.19;;;8.67;100.00
3132;BME280;62090;52.330;9.104;2023-04-15T05:43:15;100382.31;;;8.85;100.00
3132;BME280;62090;52.330;9.104;2023-04-15T05:45:49;100389.28;;;8.92;100.00
3132;BME280;62090;52.330;9.104;2023-04-15T05:48:20;100366.75;;;8.73;100.00
3132;BME280;62090;52.330;9.104;2023-04-15T05:50:51;100387.47;;;8.88;100.00
3132;BME280;62090;52.330;9.104;2023-04-15T05:53:22;100387.53;;;8.91;100.00
3132;BME280;62090;52.330;9.104;2023-04-15T05:55:53;100385.91;;;8.93;100.00
3132;BME280;62090;52.330;9.104;2023-04-15T05:58:24;100392.78;;;8.97;100.00
3132;BME280;62090;52.330;9.104;2023-04-15T06:00:57;100369.53;;;8.82;100.00
3132;BME280;62090;52.330;9.104;2023-04-15T06:03:28;100387.72;;;8.97;100.00
3132;BME280;62090;52.330;9.104;2023-04-15T06:06:00;100349.88;;;8.75;100.00
3132;BME280;62090;52.330;9.104;2023-04-15T06:08:31;100394.50;;;8.98;100.00
3132;BME280;62090;52.330;9.104;2023-04-15T06:11:02;100374.72;;;8.86;100.00
3132;BME280;62090;52.330;9.104;2023-04-15T06:13:33;100380.56;;;8.84;100.00
3132;BME280;62090;52.330;9.104;2023-04-15T06:16:07;100393.44;;;8.90;100.00
3132;BME280;62090;52.330;9.104;2023-04-15T06:18:38;100395.97;;;8.90;100.00
3132;BME280;62090;52.330;9.104;2023-04-15T06:21:09;100401.16;;;8.93;100.00
3132;BME280;62090;52.330;9.104;2023-04-15T06:23:40;100391.00;;;8.93;100.00
3132;BME280;62090;52.330;9.104;2023-04-15T06:26:12;100401.22;;;8.96;100.00
3132;BME280;62090;52.330;9.104;2023-04-15T06:28:43;100345.50;;;8.69;100.00
3132;BME280;62090;52.330;9.104;2023-04-15T06:31:16;100398.03;;;9.05;100.00
3132;BME280;62090;52.330;9.104;2023-04-15T06:33:47;100403.13;;;9.05;100.00
3132;BME280;62090;52.330;9.104;2023-04-15T06:36:18;100403.06;;;9.02;100.00
3132;BME280;62090;52.330;9.104;2023-04-15T06:38:49;100394.63;;;9.04;100.00
3132;BME280;62090;52.330;9.104;2023-04-15T06:41:20;100403.06;;;9.02;100.00
3132;BME280;62090;52.330;9.104;2023-04-15T06:43:51;100405.28;;;8.89;100.00
3132;BME280;62090;52.330;9.104;2023-04-15T06:46:25;100409.66;;;8.95;100.00
3132;BME280;62090;52.330;9.104;2023-04-15T06:48:56;100388.25;;;8.85;100.00
3132;BME280;62090;52.330;9.104;2023-04-15T06:51:27;100404.69;;;8.98;100.00
3132;BME280;62090;52.330;9.104;2023-04-15T06:53:59;100407.34;;;9.03;100.00
3132;BME280;62090;52.330;9.104;2023-04-15T06:56:32;100401.16;;;8.93;100.00
3132;BME280;62090;52.330;9.104;2023-04-15T06:59:03;100397.16;;;9.03;100.00
3132;BME280;62090;52.330;9.104;2023-04-15T07:01:38;100411.72;;;9.10;100.00
3132;BME280;62090;52.330;9.104;2023-04-15T07:04:10;100396.41;;;9.07;100.00
3132;BME280;62090;52.330;9.104;2023-04-15T07:06:41;100406.69;;;9.11;100.00
3132;BME280;62090;52.330;9.104;2023-04-15T07:09:12;100392.09;;;9.04;100.00
3132;BME280;62090;52.330;9.104;2023-04-15T07:11:43;100407.50;;;9.09;100.00
3132;BME280;62090;52.330;9.104;2023-04-15T07:14:14;100404.13;;;9.11;100.00
3132;BME280;62090;52.330;9.104;2023-04-15T07:16:47;100397.22;;;9.06;100.00
3132;BME280;62090;52.330;9.104;2023-04-15T07:19:18;100388.69;;;9.02;100.00
3132;BME280;62090;52.330;9.104;2023-04-15T07:21:50;100406.88;;;9.19;100.00
3132;BME280;62090;52.330;9.104;2023-04-15T07:24:21;100415.53;;;9.27;100.00
3132;BME280;62090;52.330;9.104;2023-04-15T07:26:56;100414.88;;;9.34;100.00
3132;BME280;62090;52.330;9.104;2023-04-15T07:29:31;100418.25;;;9.33;100.00
3132;BME280;62090;52.330;9.104;2023-04-15T07:32:04;100419.06;;;9.32;100.00
3132;BME280;62090;52.330;9.104;2023-04-15T07:34:37;100418.88;;;9.24;100.00
3132;BME280;62090;52.330;9.104;2023-04-15T07:37:08;100424.00;;;9.26;100.00
3132;BME280;62090;52.330;9.104;2023-04-15T07:39:39;100402.72;;;9.22;100.00
3132;BME280;62090;52.330;9.104;2023-04-15T07:42:10;100418.19;;;9.31;100.00
3132;BME280;62090;52.330;9.104;2023-04-15T07:44:42;100420.53;;;9.22;100.00
3132;BME280;62090;52.330;9.104;2023-04-15T07:47:15;100420.47;;;9.21;100.00
3132;BME280;62090;52.330;9.104;2023-04-15T07:49:46;100412.69;;;9.13;100.00
3132;BME280;62090;52.330;9.104;2023-04-15T07:52:18;100428.75;;;9.12;100.00
3132;BME280;62090;52.330;9.104;2023-04-15T07:54:49;100430.53;;;9.16;100.00
3132;BME280;62090;52.330;9.104;2023-04-15T07:57:20;100427.19;;;9.17;100.00
3132;BME280;62090;52.330;9.104;2023-04-15T07:59:51;100437.28;;;9.16;100.00
3132;BME280;62090;52.330;9.104;2023-04-15T08:02:25;100415.13;;;9.10;100.00
3132;BME280;62090;52.330;9.104;2023-04-15T08:04:56;100427.25;;;9.20;100.00
3132;BME280;62090;52.330;9.104;2023-04-15T08:07:30;100418.63;;;9.15;100.00
3132;BME280;62090;52.330;9.104;2023-04-15T08:10:01;100431.50;;;9.20;100.00
3132;BME280;62090;52.330;9.104;2023-04-15T08:12:32;100440.81;;;9.19;100.00
3132;BME280;62090;52.330;9.104;2023-04-15T08:15:04;100437.41;;;9.20;100.00
3132;BME280;62090;52.330;9.104;2023-04-15T08:17:37;100447.66;;;9.23;100.00
3132;BME280;62090;52.330;9.104;2023-04-15T08:20:09;100435.00;;;9.25;100.00
3132;BME280;62090;52.330;9.104;2023-04-15T08:22:41;100449.56;;;9.30;100.00
3132;BME280;62090;52.330;9.104;2023-04-15T08:25:13;100440.09;;;9.26;100.00
3132;BME280;62090;52.330;9.104;2023-04-15T08:27:44;100447.78;;;9.28;100.00
3132;BME280;62090;52.330;9.104;2023-04-15T08:30:15;100422.09;;;9.17;100.00
3132;BME280;62090;52.330;9.104;2023-04-15T08:32:49;100441.88;;;9.29;100.00
3132;BME280;62090;52.330;9.104;2023-04-15T08:35:20;100431.63;;;9.26;100.00
3132;BME280;62090;52.330;9.104;2023-04-15T08:37:51;100416.34;;;9.24;100.00
3132;BME280;62090;52.330;9.104;2023-04-15T08:40:25;100425.06;;;9.34;100.00
3132;BME280;62090;52.330;9.104;2023-04-15T08:43:04;100437.94;;;9.42;100.00
3132;BME280;62090;52.330;9.104;2023-04-15T08:45:37;100444.94;;;9.52;100.00
3132;BME280;62090;52.330;9.104;2023-04-15T08:48:14;100439.75;;;9.46;100.00
3132;BME280;62090;52.330;9.104;2023-04-15T08:50:45;100442.34;;;9.49;100.00
3132;BME280;62090;52.330;9.104;2023-04-15T08:53:17;100440.00;;;9.56;100.00
3132;BME280;62090;52.330;9.104;2023-04-15T08:55:51;100432.25;;;9.52;100.00
3132;BME280;62090;52.330;9.104;2023-04-15T08:58:23;100433.00;;;9.48;100.00
3132;BME280;62090;52.330;9.104;2023-04-15T09:00:55;100405.72;;;9.41;100.00
3132;BME280;62090;52.330;9.104;2023-04-15T09:03:29;100448.00;;;9.71;100.00
3132;BME280;62090;52.330;9.104;2023-04-15T09:06:03;100447.25;;;9.77;100.00
3132;BME280;62090;52.330;9.104;2023-04-15T09:08:34;100444.56;;;9.71;100.00
3132;BME280;62090;52.330;9.104;2023-04-15T09:11:05;100459.03;;;9.72;100.00
3132;BME280;62090;52.330;9.104;2023-04-15T09:13:36;100456.63;;;9.78;100.00
3132;BME280;62090;52.330;9.104;2023-04-15T09:16:07;100468.41;;;9.74;100.00
3132;BME280;62090;52.330;9.104;2023-04-15T09:18:42;100475.41;;;9.85;100.00
3132;BME280;62090;52.330;9.104;2023-04-15T09:21:14;100467.78;;;9.83;100.00
3132;BME280;62090;52.330;9.104;2023-04-15T09:23:56;100471.28;;;9.90;100.00
3132;BME280;62090;52.330;9.104;2023-04-15T09:26:32;100457.41;;;9.75;100.00
3132;BME280;62090;52.330;9.104;2023-04-15T09:29:04;100464.88;;;9.69;100.00
3132;BME280;62090;52.330;9.104;2023-04-15T09:31:36;100432.38;;;9.56;100.00
3132;BME280;62090;52.330;9.104;2023-04-15T09:34:10;100473.09;;;9.94;100.00
3132;BME280;62090;52.330;9.104;2023-04-15T09:36:52;100478.16;;;9.92;100.00
3132;BME280;62090;52.330;9.104;2023-04-15T09:39:23;100473.53;;;9.76;100.00
3132;BME280;62090;52.330;9.104;2023-04-15T09:42:04;100474.69;;;9.90;100.00
3132;BME280;62090;52.330;9.104;2023-04-15T09:44:36;100472.91;;;9.86;100.00
3132;BME280;62090;52.330;9.104;2023-04-15T09:47:08;100482.91;;;9.79;100.00
3132;BME280;62090;52.330;9.104;2023-04-15T09:49:54;100485.63;;;9.86;100.00
3132;BME280;62090;52.330;9.104;2023-04-15T09:52:25;100477.09;;;9.83;100.00
3132;BME280;62090;52.330;9.104;2023-04-15T09:54:57;100486.66;;;9.94;100.00
3132;BME280;62090;52.330;9.104;2023-04-15T09:57:33;100492.69;;;9.98;100.00
3132;BME280;62090;52.330;9.104;2023-04-15T10:00:06;100479.69;;;9.86;100.00
3132;BME280;62090;52.330;9.104;2023-04-15T10:02:39;100494.28;;;9.94;100.00
3132;BME280;62090;52.330;9.104;2023-04-15T10:05:14;100495.25;;;9.99;100.00
3132;BME280;62090;52.330;9.104;2023-04-15T10:07:46;100497.69;;;9.93;100.00
3132;BME280;62090;52.330;9.104;2023-04-15T10:10:17;100505.38;;;9.96;100.00
3132;BME280;62090;52.330;9.104;2023-04-15T10:12:50;100507.09;;;9.97;100.00
3132;BME280;62090;52.330;9.104;2023-04-15T10:15:23;100505.38;;;9.96;100.00
3132;BME280;62090;52.330;9.104;2023-04-15T10:17:55;100495.00;;;9.87;100.00
3132;BME280;62090;52.330;9.104;2023-04-15T10:20:29;100504.63;;;10.00;100.00
3132;BME280;62090;52.330;9.104;2023-04-15T10:23:01;100488.25;;;9.89;100.00
3132;BME280;62090;52.330;9.104;2023-04-15T10:25:35;100504.63;;;10.00;100.00
3132;BME280;62090;52.330;9.104;2023-04-15T10:28:07;100498.59;;;9.97;100.00
3132;BME280;62090;52.330;9.104;2023-04-15T10:30:38;100508.84;;;9.98;100.00
3132;BME280;62090;52.330;9.104;2023-04-15T10:33:09;100513.03;;;9.96;100.00
3132;BME280;62090;52.330;9.104;2023-04-15T10:35:44;100504.53;;;9.96;100.00
3132;BME280;62090;52.330;9.104;2023-04-15T10:38:35;100517.44;;;10.03;100.00
3132;BME280;62090;52.330;9.104;2023-04-15T10:41:16;100502.97;;;10.02;100.00
3132;BME280;62090;52.330;9.104;2023-04-15T10:43:50;100519.28;;;10.10;100.00
3132;BME280;62090;52.330;9.104;2023-04-15T10:46:23;100522.66;;;10.09;100.00
3132;BME280;62090;52.330;9.104;2023-04-15T10:48:54;100488.78;;;9.76;100.00
3132;BME280;62090;52.330;9.104;2023-04-15T10:51:31;100476.94;;;9.77;100.00
3132;BME280;62090;52.330;9.104;2023-04-15T10:54:08;100522.47;;;10.02;100.00
3132;BME280;62090;52.330;9.104;2023-04-15T10:56:40;100526.59;;;9.97;100.00
3132;BME280;62090;52.330;9.104;2023-04-15T10:59:11;100513.75;;;9.91;100.00
3132;BME280;62090;52.330;9.104;2023-04-15T11:01:50;100522.53;;;10.05;100.00
3132;BME280;62090;52.330;9.104;2023-04-15T11:04:52;100519.13;;;10.03;100.00
3132;BME280;62090;52.330;9.104;2023-04-15T11:07:46;100537.00;;;10.06;100.00
3132;BME280;62090;52.330;9.104;2023-04-15T11:13:27;100532.84;;;10.09;100.00
3132;BME280;62090;52.330;9.104;2023-04-15T11:16:01;100518.09;;;10.71;100.00
3132;BME280;62090;52.330;9.104;2023-04-15T11:18:33;100530.16;;;10.39;100.00
3132;BME280;62090;52.330;9.104;2023-04-15T11:21:05;100536.72;;;10.30;100.00
3132;BME280;62090;52.330;9.104;2023-04-15T11:23:40;100532.41;;;10.26;100.00
3132;BME280;62090;52.330;9.104;2023-04-15T11:26:14;100526.81;;;10.82;100.00
3132;BME280;62090;52.330;9.104;2023-04-15T11:28:45;100537.94;;;10.45;100.00
3132;BME280;62090;52.330;9.104;2023-04-15T11:31:17;100534.38;;;10.39;100.00
3132;BME280;62090;52.330;9.104;2023-04-15T11:33:54;100532.78;;;10.44;100.00
3132;BME280;62090;52.330;9.104;2023-04-15T11:36:27;100536.94;;;10.39;100.00
3132;BME280;62090;52.330;9.104;2023-04-15T11:39:01;100536.88;;;10.36;100.00
3132;BME280;62090;52.330;9.104;2023-04-15T11:41:34;100540.16;;;10.32;100.00
3132;BME280;62090;52.330;9.104;2023-04-15T11:44:15;100534.09;;;10.27;100.00
3132;BME280;62090;52.330;9.104;2023-04-15T11:46:46;100549.72;;;10.42;100.00
3132;BME280;62090;52.330;9.104;2023-04-15T11:49:27;100538.56;;;10.37;100.00
3132;BME280;62090;52.330;9.104;2023-04-15T11:51:59;100550.47;;;10.36;100.00
3132;BME280;62090;52.330;9.104;2023-04-15T11:54:32;100553.13;;;10.42;100.00
3132;BME280;62090;52.330;9.104;2023-04-15T11:57:03;100518.63;;;10.18;100.00
3132;BME280;62090;52.330;9.104;2023-04-15T11:59:41;100554.84;;;10.43;100.00
3132;BME280;62090;52.330;9.104;2023-04-15T12:02:12;100556.53;;;10.41;100.00
3132;BME280;62090;52.330;9.104;2023-04-15T12:04:42;100516.84;;;10.15;100.00
3132;BME280;62090;52.330;9.104;2023-04-15T12:07:12;100562.44;;;10.42;100.00
3132;BME280;62090;52.330;9.104;2023-04-15T12:09:53;100571.06;;;10.47;100.00
3132;BME280;62090;52.330;9.104;2023-04-15T12:12:26;100564.28;;;10.47;100.00
3132;BME280;62090;52.330;9.104;2023-04-15T12:14:56;100556.53;;;10.43;100.00
3132;BME280;62090;52.330;9.104;2023-04-15T12:17:26;100566.09;;;10.53;100.00
3132;BME280;62090;52.330;9.104;2023-04-15T12:20:20;100560.91;;;10.48;100.00
3132;BME280;62090;52.330;9.104;2023-04-15T12:22:50;100583.31;;;10.63;100.00
3132;BME280;62090;52.330;9.104;2023-04-15T12:25:34;100575.59;;;10.60;100.00
3132;BME280;62090;52.330;9.104;2023-04-15T12:28:09;100585.84;;;10.63;100.00
3132;BME280;62090;52.330;9.104;2023-04-15T12:30:48;100601.13;;;10.63;100.00
3132;BME280;62090;52.330;9.104;2023-04-15T12:33:18;100584.97;;;10.61;100.00
3132;BME280;62090;52.330;9.104;2023-04-15T12:35:48;100554.03;;;10.44;100.00
3132;BME280;62090;52.330;9.104;2023-04-15T12:38:18;100595.41;;;10.72;100.00
3132;BME280;62090;52.330;9.104;2023-04-15T12:40:50;100610.91;;;10.82;100.00
3132;BME280;62090;52.330;9.104;2023-04-15T12:43:20;100608.19;;;10.75;100.00
3132;BME280;62090;52.330;9.104;2023-04-15T12:45:49;100615.88;;;10.76;100.00
3132;BME280;62090;52.330;9.104;2023-04-15T12:48:19;100593.44;;;10.60;100.00
3132;BME280;62090;52.330;9.104;2023-04-15T12:50:49;100623.69;;;10.84;100.00
3132;BME280;62090;52.330;9.104;2023-04-15T12:53:19;100616.00;;;10.82;100.00
3132;BME280;62090;52.330;9.104;2023-04-15T12:55:51;100615.00;;;10.76;100.00
3132;BME280;62090;52.330;9.104;2023-04-15T12:58:21;100605.44;;;10.66;100.00
3132;BME280;62090;52.330;9.104;2023-04-15T13:00:51;100634.81;;;10.87;100.00
3132;BME280;62090;52.330;9.104;2023-04-15T13:03:21;100595.94;;;10.57;100.00
3132;BME280;62090;52.330;9.104;2023-04-15T13:05:51;100638.19;;;10.86;100.00
3132;BME280;62090;52.330;9.104;2023-04-15T13:08:21;100588.22;;;10.54;100.00
3132;BME280;62090;52.330;9.104;2023-04-15T13:10:53;100635.63;;;10.86;100.00
3132;BME280;62090;52.330;9.104;2023-04-15T13:13:23;100638.31;;;10.92;100.00
3132;BME280;62090;52.330;9.104;2023-04-15T13:15:53;100654.53;;;10.96;100.00
3132;BME280;62090;52.330;9.104;2023-04-15T13:18:23;100642.59;;;10.95;100.00
3132;BME280;62090;52.330;9.104;2023-04-15T13:20:53;100645.06;;;10.90;100.00
3132;BME280;62090;52.330;9.104;2023-04-15T13:23:24;100645.00;;;10.87;100.00
3132;BME280;62090;52.330;9.104;2023-04-15T13:25:56;100643.41;;;10.92;100.00
3132;BME280;62090;52.330;9.104;2023-04-15T13:28:26;100651.94;;;10.93;100.00
3132;BME280;62090;52.330;9.104;2023-04-15T13:30:59;100653.44;;;10.83;100.00
3132;BME280;62090;52.330;9.104;2023-04-15T13:33:29;100644.94;;;10.84;100.00